createdAt,value
2023-04-30T00:02:13.171Z,6.57
2023-04-30T00:04:40.257Z,8.65
2023-04-30T00:07:07.331Z,8.30
2023-04-30T00:09:34.653Z,6.28
2023-04-30T00:12:01.773Z,3.00
2023-04-30T00:14:28.810Z,7.22
2023-04-30T00:16:55.893Z,9.05
2023-04-30T00:19:22.982Z,5.03
2023-04-30T00:21:50.042Z,5.75
2023-04-30T00:24:17.108Z,4.53
2023-04-30T00:26:44.166Z,4.57
2023-04-30T00:29:12.407Z,8.40
2023-04-30T00:31:39.606Z,5.70
2023-04-30T00:34:06.723Z,6.90
2023-04-30T00:36:33.807Z,5.43
2023-04-30T00:39:00.865Z,9.23
2023-04-30T00:41:28.115Z,5.63
2023-04-30T00:43:55.293Z,5.05
2023-04-30T00:46:22.418Z,8.57
2023-04-30T00:48:50.094Z,5.35
2023-04-30T00:51:17.235Z,5.93
2023-04-30T00:53:44.471Z,5.18
2023-04-30T00:56:11.755Z,9.25
2023-04-30T00:58:38.787Z,6.95
2023-04-30T01:01:06.861Z,11.10
2023-04-30T01:03:36.104Z,10.05
2023-04-30T01:06:03.560Z,7.40
2023-04-30T01:08:31.851Z,8.10
2023-04-30T01:11:05.918Z,8.52
2023-04-30T01:13:35.865Z,5.00
2023-04-30T01:16:10.905Z,4.40
2023-04-30T01:18:44.491Z,8.38
2023-04-30T01:21:12.422Z,7.22
2023-04-30T01:23:42.166Z,6.47
2023-04-30T01:26:14.435Z,7.68
2023-04-30T01:28:43.998Z,4.28
2023-04-30T01:31:20.437Z,4.93
2023-04-30T01:33:47.509Z,8.70
2023-04-30T01:36:33.627Z,5.53
2023-04-30T01:39:04.159Z,12.73
2023-04-30T01:41:50.187Z,6.80
2023-04-30T01:44:36.163Z,4.20
2023-04-30T01:47:06.772Z,4.72
2023-04-30T01:49:36.898Z,5.93
2023-04-30T01:52:18.450Z,5.28
2023-04-30T01:54:51.867Z,5.20
2023-04-30T01:57:21.981Z,9.75
2023-04-30T01:59:49.176Z,8.82
2023-04-30T02:02:16.204Z,6.53
2023-04-30T02:04:43.240Z,6.60
2023-04-30T02:07:10.640Z,6.05
2023-04-30T02:09:37.766Z,6.60
2023-04-30T02:12:05.012Z,7.82
2023-04-30T02:14:32.254Z,7.25
2023-04-30T02:16:59.282Z,6.18
2023-04-30T02:19:26.401Z,4.38
2023-04-30T02:21:53.415Z,5.85
2023-04-30T02:24:20.514Z,6.40
2023-04-30T02:26:47.602Z,6.80
2023-04-30T02:29:14.692Z,13.55
2023-04-30T02:31:41.764Z,5.07
2023-04-30T02:34:08.832Z,8.68
2023-04-30T02:36:36.692Z,9.70
2023-04-30T02:39:03.814Z,5.97
2023-04-30T02:41:30.880Z,10.38
2023-04-30T02:43:58.008Z,7.78
2023-04-30T02:46:25.183Z,10.68
2023-04-30T02:48:52.372Z,12.20
2023-04-30T02:51:19.450Z,5.85
2023-04-30T02:53:46.509Z,5.90
2023-04-30T02:56:13.596Z,7.90
2023-04-30T02:58:40.992Z,7.05
2023-04-30T03:01:08.118Z,9.40
2023-04-30T03:03:35.409Z,9.23
2023-04-30T03:06:02.970Z,7.85
2023-04-30T03:08:30.088Z,9.23
2023-04-30T03:10:57.180Z,13.25
2023-04-30T03:13:27.167Z,11.40
2023-04-30T03:15:58.498Z,8.73
2023-04-30T03:18:25.590Z,8.20
2023-04-30T03:20:52.629Z,11.98
2023-04-30T03:23:19.657Z,10.68
2023-04-30T03:25:46.719Z,7.43
2023-04-30T03:28:13.835Z,11.18
2023-04-30T03:30:41.178Z,7.88
2023-04-30T03:33:08.465Z,9.60
2023-04-30T03:35:35.775Z,9.05
2023-04-30T03:38:03.032Z,12.23
2023-04-30T03:40:30.102Z,7.50
2023-04-30T03:42:57.189Z,10.13
2023-04-30T03:45:24.249Z,9.90
2023-04-30T03:47:52.483Z,11.63
2023-04-30T03:50:19.774Z,10.95
2023-04-30T03:52:46.887Z,12.63
2023-04-30T03:55:13.924Z,8.32
2023-04-30T03:57:41.072Z,11.90
2023-04-30T04:00:10.021Z,8.90
2023-04-30T04:02:37.476Z,9.60
2023-04-30T04:05:05.053Z,9.57
2023-04-30T04:07:32.201Z,13.55
2023-04-30T04:09:59.249Z,10.55
2023-04-30T04:12:26.925Z,10.15
2023-04-30T04:14:54.014Z,13.40
2023-04-30T04:17:21.025Z,8.93
2023-04-30T04:19:48.081Z,11.07
2023-04-30T04:22:15.163Z,8.57
2023-04-30T04:24:42.414Z,9.32
2023-04-30T04:27:09.483Z,13.32
2023-04-30T04:29:36.514Z,9.80
2023-04-30T04:32:05.969Z,13.80
2023-04-30T04:34:33.557Z,10.57
2023-04-30T04:37:01.574Z,12.93
2023-04-30T04:39:28.641Z,14.07
2023-04-30T04:41:55.748Z,11.20
2023-04-30T04:44:22.954Z,10.30
2023-04-30T04:46:53.905Z,10.75
2023-04-30T04:49:21.176Z,10.90
2023-04-30T04:51:48.535Z,17.38
2023-04-30T04:54:15.879Z,16.45
2023-04-30T04:56:42.982Z,11.95
2023-04-30T04:59:10.072Z,16.25
2023-04-30T05:01:37.136Z,16.88
2023-04-30T05:04:04.189Z,10.98
2023-04-30T05:06:32.027Z,20.38
2023-04-30T05:08:59.172Z,17.63
2023-04-30T05:11:26.221Z,11.75
2023-04-30T05:13:53.293Z,12.70
2023-04-30T05:16:20.485Z,12.18
2023-04-30T05:18:47.580Z,13.25
2023-04-30T05:21:14.613Z,12.48
2023-04-30T05:23:41.747Z,14.43
2023-04-30T05:26:08.783Z,13.55
2023-04-30T05:28:35.904Z,16.20
2023-04-30T05:31:03.037Z,15.32
2023-04-30T05:33:30.023Z,15.05
2023-04-30T05:35:57.073Z,16.98
2023-04-30T05:38:24.099Z,11.98
2023-04-30T05:40:51.604Z,12.85
2023-04-30T05:43:18.663Z,18.67
2023-04-30T05:45:46.112Z,19.13
2023-04-30T05:48:13.275Z,14.63
2023-04-30T05:50:40.338Z,15.05
2023-04-30T05:53:07.414Z,15.10
2023-04-30T05:55:34.643Z,9.68
2023-04-30T05:58:01.684Z,7.63
2023-04-30T06:00:28.824Z,11.50
2023-04-30T06:02:55.995Z,7.53
2023-04-30T06:05:23.202Z,5.97
2023-04-30T06:07:50.395Z,7.20
2023-04-30T06:10:17.469Z,5.72
2023-04-30T06:12:44.483Z,6.90
2023-04-30T06:15:11.598Z,4.78
2023-04-30T06:17:38.665Z,4.90
2023-04-30T06:20:07.214Z,5.78
2023-04-30T06:22:34.557Z,6.57
2023-04-30T06:25:01.749Z,6.55
2023-04-30T06:27:28.927Z,6.47
2023-04-30T06:29:56.421Z,4.97
2023-04-30T06:32:23.652Z,5.60
2023-04-30T06:34:50.682Z,2.88
2023-04-30T06:37:17.783Z,2.90
2023-04-30T06:39:44.967Z,5.75
2023-04-30T06:42:12.038Z,8.27
2023-04-30T06:44:39.075Z,4.55
2023-04-30T06:47:06.199Z,5.97
2023-04-30T06:49:33.380Z,6.47
2023-04-30T06:52:01.479Z,2.88
2023-04-30T06:54:28.551Z,3.60
2023-04-30T06:56:55.682Z,5.35
2023-04-30T06:59:22.737Z,3.88
2023-04-30T07:01:49.923Z,7.47
2023-04-30T07:04:17.024Z,3.38
2023-04-30T07:06:44.102Z,6.25
2023-04-30T07:09:11.425Z,7.00
2023-04-30T07:11:38.503Z,5.13
2023-04-30T07:14:05.710Z,5.70
2023-04-30T07:16:33.398Z,7.18
2023-04-30T07:19:00.643Z,7.70
2023-04-30T07:21:27.999Z,7.07
2023-04-30T07:23:55.281Z,4.15
2023-04-30T07:26:24.955Z,4.25
2023-04-30T07:28:52.071Z,2.72
2023-04-30T07:31:19.320Z,5.25
2023-04-30T07:33:46.690Z,2.30
2023-04-30T07:36:13.853Z,5.05
2023-04-30T07:38:40.851Z,4.70
2023-04-30T07:41:09.496Z,3.40
2023-04-30T07:43:37.220Z,5.75
2023-04-30T07:46:04.468Z,5.05
2023-04-30T07:48:31.648Z,5.40
2023-04-30T07:50:58.740Z,3.20
2023-04-30T07:53:25.894Z,3.97
2023-04-30T07:55:53.019Z,3.20
2023-04-30T07:58:20.028Z,4.20
2023-04-30T08:00:47.748Z,3.15
2023-04-30T08:03:14.859Z,3.80
2023-04-30T08:05:41.940Z,3.33
2023-04-30T08:08:09.171Z,5.32
2023-04-30T08:10:37.317Z,5.45
2023-04-30T08:13:05.112Z,4.20
2023-04-30T08:15:34.021Z,5.93
2023-04-30T08:18:01.215Z,4.68
2023-04-30T08:20:28.428Z,7.82
2023-04-30T08:22:55.573Z,5.50
2023-04-30T08:25:22.608Z,5.10
2023-04-30T08:27:49.719Z,2.15
2023-04-30T08:30:16.924Z,3.53
2023-04-30T08:32:44.006Z,7.18
2023-04-30T08:35:11.206Z,4.70
2023-04-30T08:37:38.315Z,4.55
2023-04-30T08:40:09.378Z,2.80
2023-04-30T08:42:37.583Z,2.25
2023-04-30T08:45:05.112Z,5.47
2023-04-30T08:47:32.308Z,4.60
2023-04-30T08:49:59.368Z,2.10
2023-04-30T08:52:27.312Z,7.05
2023-04-30T08:54:55.777Z,3.65
2023-04-30T08:57:23.331Z,3.95
2023-04-30T08:59:50.437Z,4.22
2023-04-30T09:02:17.561Z,3.80
2023-04-30T09:04:44.965Z,5.32
2023-04-30T09:07:14.364Z,4.72
2023-04-30T09:09:41.476Z,3.20
2023-04-30T09:12:18.687Z,6.00
2023-04-30T09:15:05.661Z,4.20
2023-04-30T09:17:34.192Z,7.43
2023-04-30T09:20:08.373Z,4.10
2023-04-30T09:22:36.701Z,3.60
2023-04-30T09:25:03.898Z,4.78
2023-04-30T09:27:30.960Z,5.68
2023-04-30T09:29:58.166Z,4.30
2023-04-30T09:32:25.220Z,3.28
2023-04-30T09:34:52.417Z,6.03
2023-04-30T09:37:19.547Z,5.05
2023-04-30T09:39:49.653Z,8.10
2023-04-30T09:42:16.956Z,3.45
2023-04-30T09:44:43.997Z,4.28
2023-04-30T09:47:15.758Z,4.32
2023-04-30T09:49:44.356Z,4.57
2023-04-30T09:52:12.328Z,3.40
2023-04-30T09:54:39.716Z,4.57
2023-04-30T09:57:10.722Z,5.22
2023-04-30T09:59:39.634Z,4.55
2023-04-30T10:02:08.080Z,3.25
2023-04-30T10:04:39.107Z,4.88
2023-04-30T10:07:12.506Z,3.75
2023-04-30T10:10:05.071Z,5.07
2023-04-30T10:12:52.402Z,4.22
2023-04-30T10:15:26.439Z,3.15
2023-04-30T10:18:12.211Z,3.75
2023-04-30T10:20:39.509Z,4.03
2023-04-30T10:23:07.233Z,2.72
2023-04-30T10:25:34.610Z,3.20
2023-04-30T10:28:04.528Z,3.90
2023-04-30T10:30:32.788Z,4.82
2023-04-30T10:33:12.232Z,3.83
2023-04-30T10:35:46.223Z,2.25
2023-04-30T10:38:21.913Z,4.13
2023-04-30T10:40:49.030Z,3.30
2023-04-30T10:43:19.502Z,2.80
2023-04-30T10:45:47.117Z,5.20
2023-04-30T10:48:15.648Z,4.85
2023-04-30T10:50:45.726Z,4.25
2023-04-30T10:53:17.522Z,6.93
2023-04-30T10:55:49.314Z,3.10
2023-04-30T10:58:25.816Z,8.07
2023-04-30T11:01:01.308Z,3.63
2023-04-30T11:03:32.787Z,4.80
2023-04-30T11:08:34.340Z,3.88
2023-04-30T11:11:01.764Z,3.90
2023-04-30T11:13:29.254Z,2.78
2023-04-30T11:16:03.282Z,5.53
2023-04-30T11:18:31.166Z,2.30
2023-04-30T11:20:58.444Z,5.53
2023-04-30T11:23:38.499Z,4.90
2023-04-30T11:26:07.963Z,3.72
2023-04-30T11:28:35.847Z,2.45
2023-04-30T11:31:03.347Z,5.55
2023-04-30T11:33:33.921Z,3.53
2023-04-30T11:36:01.769Z,3.30
2023-04-30T11:38:34.576Z,5.53
2023-04-30T11:41:02.397Z,4.53
2023-04-30T11:43:30.987Z,3.20
2023-04-30T11:46:08.846Z,2.70
2023-04-30T11:48:37.366Z,4.00
2023-04-30T11:51:05.634Z,4.00
2023-04-30T11:53:32.960Z,6.05
2023-04-30T11:56:03.656Z,4.80
2023-04-30T11:58:34.309Z,5.93
2023-04-30T12:01:02.032Z,4.55
2023-04-30T12:03:29.499Z,3.25
2023-04-30T12:05:56.699Z,3.97
2023-04-30T12:08:24.237Z,5.70
2023-04-30T12:10:51.347Z,2.47
2023-04-30T12:13:18.455Z,2.00
2023-04-30T12:15:58.235Z,3.13
2023-04-30T12:18:26.159Z,3.42
2023-04-30T12:20:53.281Z,4.28
2023-04-30T12:23:20.652Z,3.30
2023-04-30T12:25:47.718Z,5.03
2023-04-30T12:28:14.784Z,5.75
2023-04-30T12:30:43.593Z,4.25
2023-04-30T12:33:11.926Z,2.83
2023-04-30T12:35:42.986Z,2.92
2023-04-30T12:38:10.035Z,3.92
2023-04-30T12:40:37.186Z,3.03
2023-04-30T12:43:05.895Z,5.03
2023-04-30T12:45:46.604Z,4.47
2023-04-30T12:48:14.330Z,2.90
2023-04-30T12:50:41.684Z,2.35
2023-04-30T12:53:09.168Z,1.45
2023-04-30T12:55:37.878Z,2.67
2023-04-30T12:58:06.046Z,3.88
2023-04-30T13:00:46.518Z,6.32
2023-04-30T13:03:13.858Z,4.10
2023-04-30T13:05:47.238Z,2.85
2023-04-30T13:08:14.447Z,3.47
2023-04-30T13:10:41.577Z,2.50
2023-04-30T13:13:08.599Z,1.80
2023-04-30T13:15:35.764Z,2.55
2023-04-30T13:18:04.033Z,1.88
2023-04-30T13:20:31.195Z,3.60
2023-04-30T13:22:58.456Z,5.00
2023-04-30T13:25:25.515Z,3.45
2023-04-30T13:27:52.609Z,3.60
2023-04-30T13:30:19.676Z,2.55
2023-04-30T13:32:46.764Z,3.20
2023-04-30T13:35:13.907Z,3.08
2023-04-30T13:37:41.170Z,1.75
2023-04-30T13:40:09.077Z,6.10
2023-04-30T13:42:39.573Z,1.73
2023-04-30T13:45:07.391Z,2.58
2023-04-30T13:47:35.595Z,1.67
2023-04-30T13:50:03.523Z,4.38
2023-04-30T13:52:30.671Z,3.90
2023-04-30T13:54:57.904Z,2.80
2023-04-30T13:57:25.525Z,3.00
2023-04-30T13:59:52.824Z,1.20
2023-04-30T14:02:20.114Z,4.13
2023-04-30T14:05:02.059Z,3.70
2023-04-30T14:07:33.885Z,2.17
2023-04-30T14:10:01.015Z,2.83
2023-04-30T14:12:30.589Z,1.45
2023-04-30T14:14:57.933Z,3.45
2023-04-30T14:17:26.863Z,2.47
2023-04-30T14:19:54.833Z,1.85
2023-04-30T14:22:22.228Z,2.17
2023-04-30T14:24:49.286Z,3.63
2023-04-30T14:27:16.327Z,5.95
2023-04-30T14:29:43.369Z,2.65
2023-04-30T14:32:10.473Z,2.30
2023-04-30T14:34:38.278Z,3.63
2023-04-30T14:37:05.333Z,2.47
2023-04-30T14:39:32.487Z,2.05
2023-04-30T14:41:59.590Z,1.60
2023-04-30T14:44:26.915Z,2.83
2023-04-30T14:46:54.261Z,3.70
2023-04-30T14:49:21.330Z,1.25
2023-04-30T14:51:48.429Z,1.90
2023-04-30T14:54:15.985Z,1.40
2023-04-30T14:56:44.285Z,1.48
2023-04-30T14:59:11.949Z,2.30
2023-04-30T15:01:39.109Z,1.90
2023-04-30T15:04:07.097Z,1.50
2023-04-30T15:06:34.331Z,1.80
2023-04-30T15:09:01.744Z,3.53
2023-04-30T15:11:28.819Z,2.40
2023-04-30T15:13:56.185Z,2.38
2023-04-30T15:16:23.294Z,4.57
2023-04-30T15:18:50.498Z,1.08
2023-04-30T15:21:17.650Z,1.73
2023-04-30T15:23:45.817Z,2.55
2023-04-30T15:26:12.884Z,1.90
2023-04-30T15:28:40.045Z,1.75
2023-04-30T15:31:07.175Z,2.83
2023-04-30T15:33:39.477Z,3.13
2023-04-30T15:36:06.745Z,2.22
2023-04-30T15:38:34.040Z,1.77
2023-04-30T15:41:01.405Z,6.72
2023-04-30T15:43:29.873Z,3.72
2023-04-30T15:45:57.383Z,1.42
2023-04-30T15:48:25.478Z,1.17
2023-04-30T15:50:52.596Z,2.17
2023-04-30T15:53:19.753Z,2.75
2023-04-30T15:55:48.668Z,2.78
2023-04-30T15:58:16.183Z,2.22
2023-04-30T16:00:43.419Z,1.35
2023-04-30T16:03:10.673Z,2.10
2023-04-30T16:05:40.394Z,1.50
2023-04-30T16:08:10.846Z,1.77
2023-04-30T16:10:38.815Z,2.33
2023-04-30T16:13:05.910Z,3.88
2023-04-30T16:15:33.289Z,1.45
2023-04-30T16:18:00.834Z,4.15
2023-04-30T16:20:28.071Z,1.77
2023-04-30T16:22:56.292Z,2.25
2023-04-30T16:25:23.347Z,2.63
2023-04-30T16:27:51.556Z,1.98
2023-04-30T16:30:18.699Z,3.92
2023-04-30T16:32:45.827Z,1.38
2023-04-30T16:35:12.986Z,1.88
2023-04-30T16:37:40.100Z,3.55
2023-04-30T16:40:08.232Z,0.95
2023-04-30T16:42:35.618Z,1.10
2023-04-30T16:45:02.957Z,3.10
2023-04-30T16:47:30.165Z,3.35
2023-04-30T16:49:58.618Z,4.22
2023-04-30T16:52:25.959Z,3.58
2023-04-30T16:54:53.015Z,2.45
2023-04-30T16:57:21.082Z,1.00
2023-04-30T16:59:48.507Z,3.53
2023-04-30T17:02:15.936Z,2.20
2023-04-30T17:04:43.087Z,1.23
2023-04-30T17:07:10.117Z,2.35
2023-04-30T17:09:37.340Z,1.88
2023-04-30T17:12:05.412Z,6.97
2023-04-30T17:14:32.548Z,2.45
2023-04-30T17:16:59.774Z,1.25
2023-04-30T17:19:26.818Z,3.97
2023-04-30T17:21:53.892Z,1.45
2023-04-30T17:24:21.125Z,2.60
2023-04-30T17:26:48.651Z,2.80
2023-04-30T17:29:16.522Z,1.67
2023-04-30T17:31:44.010Z,2.72
2023-04-30T17:34:11.486Z,2.13
2023-04-30T17:36:38.660Z,1.58
2023-04-30T17:39:05.843Z,4.68
2023-04-30T17:41:33.190Z,1.77
2023-04-30T17:44:00.619Z,3.05
2023-04-30T17:46:27.705Z,1.48
2023-04-30T17:48:54.881Z,8.32
2023-04-30T17:51:21.980Z,5.68
2023-04-30T17:53:49.022Z,2.35
2023-04-30T17:56:16.083Z,1.85
2023-04-30T17:58:43.148Z,3.38
2023-04-30T18:01:10.240Z,1.95
2023-04-30T18:03:37.518Z,1.60
2023-04-30T18:06:04.860Z,1.95
2023-04-30T18:08:32.030Z,5.03
2023-04-30T18:10:59.162Z,1.90
2023-04-30T18:13:27.403Z,4.65
2023-04-30T18:15:54.616Z,3.42
2023-04-30T18:18:21.822Z,3.95
2023-04-30T18:20:49.121Z,2.30
2023-04-30T18:23:16.254Z,2.92
2023-04-30T18:25:43.635Z,4.07
2023-04-30T18:28:11.082Z,2.63
2023-04-30T18:30:38.352Z,3.75
2023-04-30T18:33:05.601Z,4.57
2023-04-30T18:35:33.913Z,3.55
2023-04-30T18:38:01.850Z,3.63
2023-04-30T18:40:29.143Z,2.45
2023-04-30T18:42:56.776Z,4.70
2023-04-30T18:45:24.233Z,2.95
2023-04-30T18:47:51.887Z,3.55
2023-04-30T18:50:19.581Z,4.57
2023-04-30T18:52:46.737Z,5.00
2023-04-30T18:55:14.392Z,5.32
2023-04-30T18:57:43.282Z,6.45
2023-04-30T19:00:13.052Z,5.88
2023-04-30T19:02:40.493Z,4.28
2023-04-30T19:05:07.841Z,5.55
2023-04-30T19:07:35.145Z,4.05
2023-04-30T19:10:03.946Z,4.82
2023-04-30T19:12:31.144Z,7.90
2023-04-30T19:14:58.766Z,5.20
2023-04-30T19:17:26.321Z,9.30
2023-04-30T19:19:53.552Z,6.63
2023-04-30T19:22:20.641Z,9.23
2023-04-30T19:24:47.739Z,9.38
2023-04-30T19:27:14.749Z,7.60
2023-04-30T19:29:41.811Z,5.75
2023-04-30T19:32:09.813Z,7.90
2023-04-30T19:34:37.031Z,6.82
2023-04-30T19:37:04.094Z,5.38
2023-04-30T19:39:31.824Z,6.10
2023-04-30T19:41:59.020Z,5.50
2023-04-30T19:44:29.169Z,5.07
2023-04-30T19:46:56.555Z,6.47
2023-04-30T19:49:26.072Z,4.50
2023-04-30T19:51:53.789Z,6.15
2023-04-30T19:54:21.001Z,4.30
2023-04-30T19:56:48.248Z,3.75
2023-04-30T19:59:15.512Z,4.20
2023-04-30T20:01:42.653Z,4.63
2023-04-30T20:04:09.949Z,5.10
2023-04-30T20:06:37.141Z,4.78
2023-04-30T20:09:04.363Z,4.13
2023-04-30T20:11:32.999Z,3.95
2023-04-30T20:14:00.085Z,7.25
2023-04-30T20:16:27.261Z,8.02
2023-04-30T20:18:54.432Z,5.53
2023-04-30T20:21:21.656Z,4.72
2023-04-30T20:23:48.677Z,4.80
2023-04-30T20:26:15.699Z,7.50
2023-04-30T20:28:44.048Z,6.65
2023-04-30T20:31:11.872Z,3.35
2023-04-30T20:33:41.155Z,7.25
2023-04-30T20:36:08.239Z,4.47
2023-04-30T20:38:35.443Z,3.90
2023-04-30T20:41:02.688Z,4.30
2023-04-30T20:43:29.847Z,5.78
2023-04-30T20:46:00.488Z,5.65
2023-04-30T20:48:27.651Z,7.90
2023-04-30T20:50:55.004Z,3.03
2023-04-30T20:53:22.907Z,3.28
2023-04-30T20:55:50.001Z,3.90
2023-04-30T20:58:17.048Z,5.35
2023-04-30T21:00:44.136Z,3.97
2023-04-30T21:03:11.314Z,3.95
2023-04-30T21:05:38.495Z,6.40
2023-04-30T21:08:05.599Z,5.95
2023-04-30T21:10:36.159Z,4.75
2023-04-30T21:13:05.287Z,5.38
2023-04-30T21:15:33.013Z,5.72
2023-04-30T21:18:00.079Z,4.75
2023-04-30T21:20:27.280Z,9.98
2023-04-30T21:22:55.479Z,8.65
2023-04-30T21:25:22.910Z,8.27
2023-04-30T21:27:50.042Z,5.90
2023-04-30T21:30:17.238Z,6.65
2023-04-30T21:32:47.063Z,6.40
2023-04-30T21:35:14.629Z,7.82
2023-04-30T21:37:42.161Z,5.60
2023-04-30T21:40:09.501Z,6.25
2023-04-30T21:42:36.589Z,6.25
2023-04-30T21:45:03.760Z,7.50
2023-04-30T21:47:31.637Z,7.32
2023-04-30T21:49:59.059Z,4.35
2023-04-30T21:52:26.442Z,6.90
2023-04-30T21:54:53.572Z,9.43
2023-04-30T21:57:21.466Z,7.72
2023-04-30T21:59:48.580Z,4.85
2023-04-30T22:02:23.987Z,6.57
2023-04-30T22:04:51.612Z,8.77
2023-04-30T22:07:18.748Z,10.48
2023-04-30T22:09:46.080Z,9.82
2023-04-30T22:12:13.122Z,7.20
2023-04-30T22:14:40.249Z,7.28
2023-04-30T22:17:07.342Z,8.88
2023-04-30T22:19:34.415Z,8.38
2023-04-30T22:22:01.579Z,4.95
2023-04-30T22:24:29.674Z,8.95
2023-04-30T22:26:56.730Z,5.18
2023-04-30T22:29:23.984Z,9.15
2023-04-30T22:31:51.140Z,5.82
2023-04-30T22:34:19.352Z,9.10
2023-04-30T22:36:46.387Z,5.82
2023-04-30T22:39:13.487Z,6.90
2023-04-30T22:41:40.617Z,5.78
2023-04-30T22:44:07.684Z,4.95
2023-04-30T22:46:36.602Z,6.90
2023-04-30T22:49:03.816Z,5.85
2023-04-30T22:51:31.646Z,6.88
2023-04-30T22:53:58.829Z,6.80
2023-04-30T22:56:25.892Z,8.27
2023-04-30T22:58:53.069Z,6.22
2023-04-30T23:01:20.224Z,4.93
2023-04-30T23:03:47.462Z,5.78
2023-04-30T23:06:14.714Z,8.48
2023-04-30T23:08:41.782Z,9.45
2023-04-30T23:11:08.908Z,4.40
2023-04-30T23:13:36.079Z,8.88
2023-04-30T23:16:05.643Z,11.52
2023-04-30T23:18:32.902Z,7.35
2023-04-30T23:21:00.040Z,6.13
2023-04-30T23:23:27.571Z,12.00
2023-04-30T23:25:55.634Z,6.53
2023-04-30T23:28:24.482Z,5.18
2023-04-30T23:30:52.100Z,8.73
2023-04-30T23:33:19.629Z,5.22
2023-04-30T23:35:47.227Z,5.18
2023-04-30T23:38:14.673Z,6.35
2023-04-30T23:40:44.949Z,8.32
2023-04-30T23:43:12.120Z,7.30
2023-04-30T23:45:42.717Z,5.03
2023-04-30T23:48:10.399Z,7.68
2023-04-30T23:50:40.621Z,5.15
2023-04-30T23:53:07.749Z,5.40
2023-04-30T23:55:34.927Z,6.55
2023-04-30T23:58:02.009Z,11.93
